createdAt,value
2023-04-19T00:01:04.350Z,72.97
2023-04-19T00:03:32.353Z,73.25
2023-04-19T00:06:00.321Z,73.08
2023-04-19T00:08:28.104Z,72.78
2023-04-19T00:10:57.378Z,73.14
2023-04-19T00:13:25.149Z,73.39
2023-04-19T00:15:52.873Z,73.37
2023-04-19T00:18:20.687Z,73.15
2023-04-19T00:20:48.953Z,73.20
2023-04-19T00:23:16.784Z,73.26
2023-04-19T00:25:44.495Z,73.10
2023-04-19T00:28:13.622Z,73.06
2023-04-19T00:30:41.550Z,73.23
2023-04-19T00:33:12.968Z,72.82
2023-04-19T00:35:41.235Z,72.56
2023-04-19T00:38:09.157Z,72.72
2023-04-19T00:40:37.440Z,72.80
2023-04-19T00:43:05.304Z,73.07
2023-04-19T00:45:36.349Z,72.94
2023-04-19T00:48:04.307Z,72.73
2023-04-19T00:50:32.305Z,72.78
2023-04-19T00:53:00.127Z,72.92
2023-04-19T00:55:27.883Z,72.43
2023-04-19T00:57:55.766Z,72.50
2023-04-19T01:00:23.766Z,72.92
2023-04-19T01:02:53.820Z,72.64
2023-04-19T01:05:21.803Z,72.81
2023-04-19T01:07:49.574Z,72.51
2023-04-19T01:10:17.812Z,72.83
2023-04-19T01:12:45.834Z,72.92
2023-04-19T01:15:13.616Z,72.53
2023-04-19T01:17:41.611Z,72.57
2023-04-19T01:20:12.218Z,72.63
2023-04-19T01:22:41.312Z,72.85
2023-04-19T01:25:10.374Z,72.58
2023-04-19T01:27:38.158Z,72.50
2023-04-19T01:30:07.226Z,72.93
2023-04-19T01:32:35.012Z,72.67
2023-04-19T01:35:02.796Z,73.03
2023-04-19T01:37:30.586Z,73.13
2023-04-19T01:39:59.736Z,72.94
2023-04-19T01:42:27.562Z,73.02
2023-04-19T01:44:55.279Z,73.06
2023-04-19T01:47:23.358Z,72.73
2023-04-19T01:49:51.133Z,73.10
2023-04-19T01:52:18.888Z,73.10
2023-04-19T01:54:46.642Z,72.77
2023-04-19T01:57:16.756Z,72.61
2023-04-19T01:59:44.481Z,72.55
2023-04-19T02:02:12.321Z,72.84
2023-04-19T02:04:40.127Z,72.76
2023-04-19T02:07:07.982Z,72.98
2023-04-19T02:09:37.075Z,73.32
2023-04-19T02:12:05.340Z,73.26
2023-04-19T02:14:34.480Z,73.34
2023-04-19T02:17:02.235Z,73.13
2023-04-19T02:19:30.004Z,73.75
2023-04-19T02:21:58.123Z,73.31
2023-04-19T02:24:25.953Z,73.12
2023-04-19T02:26:53.709Z,73.81
2023-04-19T02:29:21.524Z,73.55
2023-04-19T02:31:50.664Z,73.51
2023-04-19T02:34:18.700Z,74.07
2023-04-19T02:36:46.451Z,73.47
2023-04-19T02:39:14.173Z,73.81
2023-04-19T02:41:42.343Z,73.87
2023-04-19T02:44:10.102Z,73.80
2023-04-19T02:46:37.917Z,73.88
2023-04-19T02:49:07.101Z,73.84
2023-04-19T02:51:34.873Z,74.06
2023-04-19T02:54:02.632Z,73.89
2023-04-19T02:56:30.510Z,73.89
2023-04-19T02:59:01.646Z,73.73
2023-04-19T03:01:29.493Z,73.93
2023-04-19T03:03:57.663Z,74.08
2023-04-19T03:06:27.057Z,74.02
2023-04-19T03:08:54.818Z,73.77
2023-04-19T03:11:22.575Z,74.18
2023-04-19T03:13:50.364Z,74.00
2023-04-19T03:16:18.358Z,74.53
2023-04-19T03:18:48.061Z,74.09
2023-04-19T03:21:17.196Z,73.90
2023-04-19T03:23:46.368Z,74.43
2023-04-19T03:26:14.263Z,74.23
2023-04-19T03:28:42.059Z,74.28
2023-04-19T03:31:09.809Z,74.26
2023-04-19T03:33:37.607Z,74.37
2023-04-19T03:36:06.082Z,73.93
2023-04-19T03:38:33.917Z,74.01
2023-04-19T03:41:03.046Z,74.55
2023-04-19T03:43:30.804Z,73.98
2023-04-19T03:45:58.591Z,74.61
2023-04-19T03:48:26.415Z,74.82
2023-04-19T03:50:54.210Z,74.84
2023-04-19T03:53:21.983Z,74.66
2023-04-19T03:55:49.794Z,74.47
2023-04-19T03:58:19.085Z,74.64
2023-04-19T04:00:46.843Z,74.83
2023-04-19T04:03:14.808Z,74.62
2023-04-19T04:05:42.957Z,75.11
2023-04-19T04:08:10.778Z,75.09
2023-04-19T04:10:38.605Z,74.97
2023-04-19T04:13:06.393Z,75.04
2023-04-19T04:15:35.629Z,75.04
2023-04-19T04:18:03.459Z,75.39
2023-04-19T04:20:31.678Z,74.96
2023-04-19T04:22:59.578Z,75.19
2023-04-19T04:25:28.985Z,75.02
2023-04-19T04:27:56.806Z,75.40
2023-04-19T04:30:27.248Z,75.16
2023-04-19T04:32:58.089Z,75.27
2023-04-19T04:35:26.151Z,75.66
2023-04-19T04:37:54.980Z,75.81
2023-04-19T04:40:23.013Z,75.88
2023-04-19T04:42:52.979Z,76.32
2023-04-19T04:45:21.279Z,76.53
2023-04-19T04:47:49.142Z,76.97
2023-04-19T04:50:18.411Z,76.74
2023-04-19T04:52:46.249Z,77.40
2023-04-19T04:55:14.030Z,77.49
2023-04-19T04:57:41.736Z,77.89
2023-04-19T05:00:11.315Z,77.45
2023-04-19T05:02:39.180Z,77.66
2023-04-19T05:05:07.727Z,77.71
2023-04-19T05:07:36.873Z,77.86
2023-04-19T05:10:04.681Z,77.91
2023-04-19T05:12:32.424Z,77.55
2023-04-19T05:15:00.232Z,77.78
2023-04-19T05:17:29.194Z,77.62
2023-04-19T05:19:56.972Z,77.58
2023-04-19T05:22:24.788Z,77.44
2023-04-19T05:24:54.293Z,77.35
2023-04-19T05:27:22.019Z,77.86
2023-04-19T05:29:51.474Z,77.63
2023-04-19T05:32:19.327Z,77.65
2023-04-19T05:34:47.115Z,77.48
2023-04-19T05:37:14.893Z,77.56
2023-04-19T05:39:44.481Z,77.52
2023-04-19T05:42:13.949Z,77.85
2023-04-19T05:44:41.721Z,77.82
2023-04-19T05:47:09.952Z,77.77
2023-04-19T05:49:37.760Z,78.00
2023-04-19T05:52:06.008Z,77.96
2023-04-19T05:54:36.032Z,78.47
2023-04-19T05:57:04.035Z,78.10
2023-04-19T05:59:33.195Z,78.05
2023-04-19T06:02:01.697Z,78.48
2023-04-19T06:04:29.828Z,77.96
2023-04-19T06:06:57.662Z,77.98
2023-04-19T06:09:25.706Z,78.36
2023-04-19T06:11:54.753Z,77.82
2023-04-19T06:14:23.611Z,77.70
2023-04-19T06:16:52.710Z,77.75
2023-04-19T06:19:21.260Z,77.23
2023-04-19T06:21:49.430Z,76.94
2023-04-19T06:24:17.276Z,77.29
2023-04-19T06:26:45.092Z,76.95
2023-04-19T06:29:12.894Z,76.61
2023-04-19T06:31:40.769Z,76.59
2023-04-19T06:34:11.185Z,76.15
2023-04-19T06:36:39.150Z,76.31
2023-04-19T06:39:06.969Z,76.18
2023-04-19T06:41:34.759Z,75.66
2023-04-19T06:44:03.082Z,75.26
2023-04-19T06:46:30.928Z,75.69
2023-04-19T06:48:58.715Z,74.89
2023-04-19T06:51:27.989Z,74.53
2023-04-19T06:53:55.757Z,74.64
2023-04-19T06:56:42.011Z,73.70
2023-04-19T06:59:09.853Z,73.89
2023-04-19T07:01:37.677Z,73.34
2023-04-19T07:04:05.933Z,73.44
2023-04-19T07:06:35.373Z,72.58
2023-04-19T07:09:03.956Z,72.40
2023-04-19T07:11:32.119Z,72.31
2023-04-19T07:14:00.898Z,71.89
2023-04-19T07:16:29.003Z,71.11
2023-04-19T07:18:57.229Z,70.80
2023-04-19T07:21:28.666Z,70.25
2023-04-19T07:23:57.842Z,69.58
2023-04-19T07:26:25.654Z,69.31
2023-04-19T07:28:53.406Z,68.91
2023-04-19T07:31:21.245Z,68.56
2023-04-19T07:33:49.067Z,68.72
2023-04-19T07:36:16.881Z,69.05
2023-04-19T07:38:44.685Z,68.97
2023-04-19T07:41:13.887Z,68.59
2023-04-19T07:43:41.654Z,68.56
2023-04-19T07:46:12.744Z,68.30
2023-04-19T07:48:40.678Z,67.76
2023-04-19T07:51:12.245Z,67.91
2023-04-19T07:53:41.627Z,68.06
2023-04-19T07:56:12.187Z,67.33
2023-04-19T07:58:42.373Z,66.63
2023-04-19T08:01:11.761Z,66.33
2023-04-19T08:03:39.903Z,65.90
2023-04-19T08:06:09.084Z,65.82
2023-04-19T08:08:37.110Z,65.34
2023-04-19T08:11:06.124Z,65.96
2023-04-19T08:13:33.971Z,65.77
2023-04-19T08:16:40.341Z,65.73
2023-04-19T08:18:52.093Z,65.14
2023-04-19T08:21:22.310Z,64.46
2023-04-19T08:23:54.511Z,64.51
2023-04-19T08:26:22.829Z,63.46
2023-04-19T08:28:51.405Z,63.99
2023-04-19T08:31:21.382Z,63.49
2023-04-19T08:33:49.167Z,62.80
2023-04-19T08:36:22.150Z,63.50
2023-04-19T08:39:01.952Z,63.00
2023-04-19T08:41:33.455Z,63.25
2023-04-19T08:44:01.255Z,62.75
2023-04-19T08:46:32.369Z,62.22
2023-04-19T08:49:00.910Z,62.55
2023-04-19T08:51:29.480Z,61.90
2023-04-19T08:53:57.804Z,61.70
2023-04-19T08:56:34.852Z,61.18
2023-04-19T08:59:19.377Z,60.84
2023-04-19T09:01:49.166Z,60.49
2023-04-19T09:04:35.536Z,58.17
2023-04-19T09:07:04.457Z,57.55
2023-04-19T09:09:38.623Z,57.42
2023-04-19T09:12:18.724Z,56.84
2023-04-19T09:15:00.312Z,56.88
2023-04-19T09:17:31.152Z,56.12
2023-04-19T09:19:59.506Z,55.52
2023-04-19T09:22:27.452Z,55.48
2023-04-19T09:27:30.700Z,55.97
2023-04-19T09:29:59.725Z,55.10
2023-04-19T09:32:28.210Z,54.30
2023-04-19T09:34:58.466Z,54.14
2023-04-19T09:39:57.283Z,52.85
2023-04-19T09:42:47.415Z,52.24
2023-04-19T09:45:29.000Z,51.37
2023-04-19T09:48:07.442Z,51.74
2023-04-19T09:50:50.347Z,51.42
2023-04-19T09:53:24.144Z,51.77
2023-04-19T09:56:01.273Z,51.39
2023-04-19T10:01:13.235Z,50.95
2023-04-19T10:03:43.603Z,50.34
2023-04-19T10:08:50.729Z,48.55
2023-04-19T10:11:18.960Z,48.17
2023-04-19T10:13:47.954Z,47.97
2023-04-19T10:16:19.692Z,47.18
2023-04-19T10:18:49.865Z,46.62
2023-04-19T10:21:20.544Z,44.82
2023-04-19T10:23:48.629Z,45.20
2023-04-19T10:26:16.549Z,43.62
2023-04-19T10:28:44.309Z,43.53
2023-04-19T10:31:13.877Z,42.46
2023-04-19T10:33:42.859Z,43.41
2023-04-19T10:36:11.869Z,43.57
2023-04-19T10:38:44.415Z,42.50
2023-04-19T10:41:17.361Z,41.49
2023-04-19T10:43:47.442Z,41.60
2023-04-19T10:46:17.344Z,40.89
2023-04-19T10:48:55.693Z,41.41
2023-04-19T10:51:25.028Z,42.10
2023-04-19T10:53:56.523Z,41.31
2023-04-19T10:57:11.925Z,41.60
2023-04-19T10:59:42.927Z,41.78
2023-04-19T11:02:29.150Z,42.18
2023-04-19T11:05:02.148Z,42.68
2023-04-19T11:07:29.979Z,42.16
2023-04-19T11:09:59.291Z,41.06
2023-04-19T11:12:27.107Z,41.36
2023-04-19T11:15:00.462Z,37.49
2023-04-19T11:17:32.038Z,37.10
2023-04-19T11:20:01.389Z,35.05
2023-04-19T11:22:33.304Z,35.28
2023-04-19T11:25:10.417Z,33.59
2023-04-19T11:27:38.629Z,35.37
2023-04-19T11:30:08.525Z,36.57
2023-04-19T11:32:36.856Z,37.62
2023-04-19T11:35:09.917Z,36.85
2023-04-19T11:37:39.560Z,35.05
2023-04-19T11:40:09.982Z,36.76
2023-04-19T11:42:37.970Z,36.86
2023-04-19T11:45:13.199Z,36.68
2023-04-19T11:47:50.285Z,35.42
2023-04-19T11:50:35.724Z,35.16
2023-04-19T11:53:16.844Z,35.77
2023-04-19T11:55:47.328Z,34.75
2023-04-19T11:58:25.616Z,34.33
2023-04-19T12:00:53.429Z,34.79
2023-04-19T12:03:26.559Z,33.64
2023-04-19T12:05:56.277Z,32.93
2023-04-19T12:08:34.962Z,34.04
2023-04-19T12:11:04.841Z,34.54
2023-04-19T12:13:33.464Z,33.80
2023-04-19T12:16:01.624Z,35.52
2023-04-19T12:18:29.603Z,36.21
2023-04-19T12:20:58.850Z,36.63
2023-04-19T12:23:27.989Z,36.95
2023-04-19T12:25:55.717Z,36.45
2023-04-19T12:28:25.133Z,32.45
2023-04-19T12:30:53.033Z,31.36
2023-04-19T12:33:22.788Z,31.61
2023-04-19T12:35:51.573Z,33.26
2023-04-19T12:38:19.340Z,33.14
2023-04-19T12:40:47.221Z,31.77
2023-04-19T12:43:15.037Z,32.60
2023-04-19T12:45:44.229Z,33.45
2023-04-19T12:48:12.180Z,33.64
2023-04-19T12:50:40.041Z,32.13
2023-04-19T12:53:09.451Z,31.68
2023-04-19T12:55:37.278Z,30.12
2023-04-19T12:58:05.117Z,30.65
2023-04-19T13:00:32.912Z,30.30
2023-04-19T13:03:04.596Z,30.86
2023-04-19T13:05:32.552Z,30.72
2023-04-19T13:08:00.384Z,31.54
2023-04-19T13:10:28.412Z,29.38
2023-04-19T13:12:56.685Z,29.58
2023-04-19T13:15:24.515Z,29.14
2023-04-19T13:17:52.292Z,28.94
2023-04-19T13:20:21.832Z,28.99
2023-04-19T13:22:49.625Z,27.91
2023-04-19T13:25:17.421Z,27.75
2023-04-19T13:27:46.954Z,27.07
2023-04-19T13:30:15.569Z,27.72
2023-04-19T13:32:43.402Z,26.46
2023-04-19T13:35:11.344Z,25.29
2023-04-19T13:37:42.349Z,25.83
2023-04-19T13:40:21.176Z,25.50
2023-04-19T13:42:49.029Z,26.23
2023-04-19T13:45:16.788Z,27.44
2023-04-19T13:47:44.600Z,26.96
2023-04-19T13:50:13.129Z,27.36
2023-04-19T13:52:42.350Z,26.75
2023-04-19T13:55:10.699Z,27.91
2023-04-19T13:57:38.758Z,26.25
2023-04-19T14:00:08.427Z,26.09
2023-04-19T14:02:36.630Z,25.47
2023-04-19T14:05:04.811Z,26.13
2023-04-19T14:07:32.635Z,26.05
2023-04-19T14:10:01.857Z,26.15
2023-04-19T14:12:29.723Z,26.22
2023-04-19T14:14:57.465Z,25.81
2023-04-19T14:17:27.738Z,25.39
2023-04-19T14:19:55.910Z,26.39
2023-04-19T14:22:23.704Z,26.30
2023-04-19T14:24:51.711Z,24.85
2023-04-19T14:27:20.862Z,26.01
2023-04-19T14:29:48.631Z,25.16
2023-04-19T14:32:26.020Z,25.08
2023-04-19T14:34:54.724Z,24.96
2023-04-19T14:37:23.854Z,24.65
2023-04-19T14:39:51.712Z,25.29
2023-04-19T14:42:22.531Z,26.25
2023-04-19T14:44:52.292Z,25.61
2023-04-19T14:47:20.370Z,22.68
2023-04-19T14:49:48.387Z,23.66
2023-04-19T14:52:16.179Z,22.73
2023-04-19T14:54:44.018Z,22.08
2023-04-19T14:57:12.101Z,22.52
2023-04-19T14:59:41.277Z,21.82
2023-04-19T15:02:10.685Z,21.29
2023-04-19T15:04:41.074Z,21.34
2023-04-19T15:07:09.369Z,20.70
2023-04-19T15:09:37.154Z,21.45
2023-04-19T15:12:05.853Z,21.37
2023-04-19T15:14:33.636Z,20.35
2023-04-19T15:17:03.392Z,20.49
2023-04-19T15:19:31.427Z,20.84
2023-04-19T15:21:59.319Z,21.15
2023-04-19T15:24:27.115Z,21.67
2023-04-19T15:26:54.824Z,22.90
2023-04-19T15:29:22.564Z,22.33
2023-04-19T15:31:50.411Z,23.58
2023-04-19T15:34:19.727Z,24.10
2023-04-19T15:36:47.511Z,24.59
2023-04-19T15:39:15.499Z,24.15
2023-04-19T15:41:43.414Z,24.79
2023-04-19T15:44:11.210Z,24.24
2023-04-19T15:46:39.037Z,23.07
2023-04-19T15:49:06.931Z,23.52
2023-04-19T15:51:36.041Z,23.89
2023-04-19T15:54:03.883Z,23.00
2023-04-19T15:56:31.664Z,23.56
2023-04-19T15:58:59.457Z,23.96
2023-04-19T16:01:27.302Z,24.12
2023-04-19T16:03:55.365Z,23.51
2023-04-19T16:06:23.333Z,22.97
2023-04-19T16:08:52.522Z,23.79
2023-04-19T16:11:20.371Z,24.10
2023-04-19T16:13:48.542Z,24.50
2023-04-19T16:16:16.401Z,25.18
2023-04-19T16:18:44.128Z,25.72
2023-04-19T16:21:11.875Z,26.14
2023-04-19T16:23:39.606Z,26.12
2023-04-19T16:26:08.803Z,26.05
2023-04-19T16:28:36.637Z,26.97
2023-04-19T16:31:04.409Z,28.01
2023-04-19T16:33:32.180Z,28.78
2023-04-19T16:35:59.991Z,28.97
2023-04-19T16:38:27.744Z,29.14
2023-04-19T16:41:12.919Z,29.96
2023-04-19T16:43:42.154Z,29.53
2023-04-19T16:46:10.949Z,30.40
2023-04-19T16:48:38.790Z,30.87
2023-04-19T16:51:06.807Z,31.09
2023-04-19T16:53:34.557Z,30.19
2023-04-19T16:56:03.654Z,30.19
2023-04-19T16:58:31.761Z,31.39
2023-04-19T17:01:02.222Z,30.73
2023-04-19T17:03:30.452Z,31.04
2023-04-19T17:05:58.410Z,30.12
2023-04-19T17:08:26.674Z,30.90
2023-04-19T17:10:54.475Z,29.84
2023-04-19T17:13:23.442Z,29.71
2023-04-19T17:15:51.290Z,30.49
2023-04-19T17:18:20.697Z,30.11
2023-04-19T17:20:48.446Z,30.33
2023-04-19T17:23:16.342Z,30.89
2023-04-19T17:25:44.166Z,30.48
2023-04-19T17:28:11.892Z,31.31
2023-04-19T17:30:39.792Z,32.47
2023-04-19T17:33:07.736Z,31.65
2023-04-19T17:35:37.155Z,32.32
2023-04-19T17:38:04.873Z,32.17
2023-04-19T17:40:32.814Z,32.34
2023-04-19T17:43:00.615Z,32.31
2023-04-19T17:45:28.384Z,32.73
2023-04-19T17:47:56.380Z,33.04
2023-04-19T17:50:24.631Z,32.11
2023-04-19T17:52:54.651Z,32.32
2023-04-19T17:55:22.510Z,32.05
2023-04-19T17:57:50.249Z,31.97
2023-04-19T18:00:18.554Z,32.26
2023-04-19T18:02:46.443Z,32.51
2023-04-19T18:05:15.129Z,32.86
2023-04-19T18:07:42.898Z,32.72
2023-04-19T18:10:12.386Z,32.78
2023-04-19T18:12:40.238Z,32.98
2023-04-19T18:15:09.227Z,33.02
2023-04-19T18:17:37.018Z,32.80
2023-04-19T18:20:06.965Z,32.87
2023-04-19T18:22:34.883Z,33.33
2023-04-19T18:25:02.673Z,32.76
2023-04-19T18:27:32.513Z,33.43
2023-04-19T18:30:03.144Z,33.67
2023-04-19T18:32:32.064Z,33.38
2023-04-19T18:34:59.928Z,33.90
2023-04-19T18:37:27.682Z,33.89
2023-04-19T18:39:55.411Z,33.64
2023-04-19T18:42:23.537Z,34.15
2023-04-19T18:44:54.550Z,33.99
2023-04-19T18:47:22.813Z,34.28
2023-04-19T18:50:03.541Z,34.38
2023-04-19T18:52:33.333Z,34.68
2023-04-19T18:55:01.114Z,35.17
2023-04-19T18:57:30.399Z,35.42
2023-04-19T19:00:02.484Z,35.02
2023-04-19T19:02:30.755Z,35.88
2023-04-19T19:05:02.029Z,35.53
2023-04-19T19:10:02.506Z,35.83
2023-04-19T19:12:33.590Z,35.97
2023-04-19T19:15:02.794Z,36.46
2023-04-19T19:17:30.646Z,36.69
2023-04-19T19:19:58.415Z,36.54
2023-04-19T19:22:28.785Z,36.82
2023-04-19T19:24:57.343Z,36.97
2023-04-19T19:27:25.162Z,37.55
2023-04-19T19:29:52.882Z,37.94
2023-04-19T19:32:22.135Z,38.19
2023-04-19T19:34:56.305Z,37.91
2023-04-19T19:37:29.516Z,37.66
2023-04-19T19:39:57.231Z,37.62
2023-04-19T19:42:25.692Z,37.56
2023-04-19T19:44:55.348Z,37.70
2023-04-19T19:47:25.133Z,38.09
2023-04-19T19:50:39.079Z,38.03
2023-04-19T19:52:42.680Z,37.50
2023-04-19T19:55:12.472Z,37.58
2023-04-19T20:00:36.623Z,37.98
2023-04-19T20:03:01.961Z,38.02
2023-04-19T20:05:30.274Z,37.90
2023-04-19T20:08:08.168Z,38.18
2023-04-19T20:10:36.607Z,38.18
2023-04-19T20:13:06.190Z,37.94
2023-04-19T20:15:34.227Z,38.20
2023-04-19T20:18:03.551Z,38.59
2023-04-19T20:20:31.349Z,38.71
2023-04-19T20:22:59.118Z,38.76
2023-04-19T20:25:27.025Z,39.02
2023-04-19T20:27:55.262Z,40.59
2023-04-19T20:30:23.568Z,39.76
2023-04-19T20:32:51.386Z,39.59
2023-04-19T20:35:21.158Z,39.88
2023-04-19T20:37:48.950Z,40.10
2023-04-19T20:40:16.782Z,40.17
2023-04-19T20:42:45.370Z,40.60
2023-04-19T20:45:14.255Z,40.32
2023-04-19T20:47:42.857Z,40.99
2023-04-19T20:50:11.352Z,41.14
2023-04-19T20:52:40.547Z,40.78
2023-04-19T20:55:09.318Z,40.42
2023-04-19T20:57:37.088Z,40.86
2023-04-19T21:00:08.103Z,40.97
2023-04-19T21:02:36.076Z,40.79
2023-04-19T21:05:04.022Z,41.29
2023-04-19T21:07:31.808Z,41.45
2023-04-19T21:10:01.167Z,41.64
2023-04-19T21:12:28.980Z,41.59
2023-04-19T21:14:56.746Z,41.72
2023-04-19T21:17:24.629Z,41.73
2023-04-19T21:19:52.404Z,41.87
2023-04-19T21:22:20.172Z,42.29
2023-04-19T21:24:47.942Z,42.27
2023-04-19T21:27:17.073Z,42.44
2023-04-19T21:29:44.886Z,42.51
2023-04-19T21:32:12.692Z,42.64
2023-04-19T21:34:40.483Z,42.54
2023-04-19T21:37:08.269Z,42.73
2023-04-19T21:39:36.076Z,43.01
2023-04-19T21:42:03.857Z,42.84
2023-04-19T21:44:34.318Z,43.28
2023-04-19T21:47:02.243Z,43.21
2023-04-19T21:49:30.061Z,43.49
2023-04-19T21:51:57.901Z,43.47
2023-04-19T21:54:33.555Z,43.73
2023-04-19T21:57:02.328Z,43.66
2023-04-19T21:59:30.706Z,43.79
2023-04-19T22:02:00.014Z,44.06
2023-04-19T22:04:31.065Z,43.97
2023-04-19T22:07:02.296Z,44.19
2023-04-19T22:09:31.399Z,44.67
2023-04-19T22:12:00.303Z,44.77
2023-04-19T22:14:28.529Z,44.78
2023-04-19T22:16:56.674Z,44.71
2023-04-19T22:19:26.055Z,45.30
2023-04-19T22:21:55.144Z,45.02
2023-04-19T22:24:23.108Z,45.06
2023-04-19T22:26:53.129Z,44.93
2023-04-19T22:29:21.390Z,45.23
2023-04-19T22:31:49.542Z,45.44
2023-04-19T22:34:17.386Z,45.64
2023-04-19T22:36:46.762Z,45.57
2023-04-19T22:39:15.840Z,45.97
2023-04-19T22:41:44.121Z,45.68
2023-04-19T22:44:11.946Z,46.33
2023-04-19T22:46:40.049Z,45.88
2023-04-19T22:49:08.597Z,45.85
2023-04-19T22:51:36.793Z,46.44
2023-04-19T22:54:06.143Z,46.13
2023-04-19T22:56:34.338Z,46.34
2023-04-19T22:59:02.297Z,45.95
2023-04-19T23:01:30.172Z,46.27
2023-04-19T23:03:58.283Z,46.42
2023-04-19T23:06:26.149Z,46.38
2023-04-19T23:08:53.972Z,47.06
2023-04-19T23:11:25.208Z,47.13
2023-04-19T23:13:54.188Z,47.40
2023-04-19T23:16:22.688Z,48.02
2023-04-19T23:18:50.584Z,47.65
2023-04-19T23:21:18.977Z,48.44
2023-04-19T23:23:46.827Z,47.96
2023-04-19T23:26:14.703Z,48.04
2023-04-19T23:28:43.815Z,48.51
2023-04-19T23:31:12.499Z,49.17
2023-04-19T23:33:40.445Z,48.33
2023-04-19T23:36:08.642Z,48.95
2023-04-19T23:38:36.388Z,48.89
2023-04-19T23:41:04.461Z,48.09
2023-04-19T23:43:32.559Z,48.25
2023-04-19T23:46:01.707Z,48.36
2023-04-19T23:48:29.744Z,48.70
2023-04-19T23:50:57.878Z,48.53
2023-04-19T23:53:26.192Z,48.65
2023-04-19T23:55:54.321Z,48.88
2023-04-19T23:58:22.485Z,48.17
